KLSF

Lawson AAF (Fort Benning) Airport

Fort Benning(Columbus), Georgia, USA
TAF KLSF 220900Z 2209/2315 09006KT 9999 SKC WS020/12035KT QNH3040INS BECMG 2213/2214 10009KT 9999 SCT035 WS020/13040KT QNH3032INS BECMG 2217/2218 09012KT 9999 BKN030 520201 540303 QNH3028INS BECMG 2302/2303 10010G15KT 6000 -RA OVC015 540154 QNH3014INS BECMG 2308/2309 VRB06KT 4800 BR OVC010 WS020/12045KT QNH3015INS TEMPO 2309/2314 1600 BR BECMG 2314/2315 13012KT 9999 NSW SCT010 WS020/12040KT QNH3018INS TX15/2221Z TNM03/2211Z
Issued Valid From Valid To
Jan-22 @ 09:00 UTC
(8 hours ago)
Jan-22 @ 09:00 UTC
(8 hours ago)
Jan-23 @ 15:00 UTC
(in 22 hours)
Expired Click to View Jan-22 @ 09:00 to Jan-22 @ 13:00
TAF KLSF 220900Z 2209/2315 09006KT 9999 SKC WS020/12035KT QNH3040INS
Wind Visibility Clouds Readings
90° at 6 knots
 Wind shear 2,000' AGL from 120° at 35 knots
Greater than 6 miles
  • Clear skies
Altimeter 30.41" Hg
Pressure 1029.92 hPa
Becoming Jan-22 @ 13:00 to Jan-22 @ 17:00
BECMG 2213/2214 10009KT 9999 SCT035 WS020/13040KT QNH3032INS
Wind Visibility Clouds Readings
100° at 9 knots
 Wind shear 2,000' AGL from 130° at 40 knots
Greater than 6 miles
  • Scattered at 3,500' AGL
Altimeter 30.32" Hg
Pressure 1026.92 hPa
Becoming Jan-22 @ 17:00 to Jan-23 @ 02:00
BECMG 2217/2218 09012KT 9999 BKN030 520201 540303 QNH3028INS
Wind Visibility Clouds Readings Turbulence
90° at 12 knots Greater than 6 miles
  • Broken at 3,000' AGL
Altimeter 30.27" Hg
Pressure 1024.92 hPa
Occasional moderate in cloud turbulence expected at 3,000' AGL extending to 6,000' AGL
Becoming Jan-23 @ 02:00 to Jan-23 @ 08:00
BECMG 2302/2303 10010G15KT 6000 -RA OVC015 540154 QNH3014INS
Wind Visibility Clouds Conditions Readings Turbulence
100° at 10 knots
 Gusting to 15 knots
373 miles
  • Overcast at 1,500' AGL
  • Light Rain
Altimeter 30.15" Hg
Pressure 1020.92 hPa
Occasional moderate in cloud turbulence expected at 1,500' AGL extending to 5,500' AGL
Becoming Jan-23 @ 08:00 to Jan-23 @ 14:00
BECMG 2308/2309 VRB06KT 4800 BR OVC010 WS020/12045KT QNH3015INS
Wind Visibility Clouds Conditions Readings
Variable at 6 knots
 Wind shear 2,000' AGL from 120° at 45 knots
298 miles
  • Overcast at 1,000' AGL
  • Mist
Altimeter 30.15" Hg
Pressure 1020.92 hPa
Temporary Jan-23 @ 09:00 to Jan-23 @ 14:00
TEMPO 2309/2314 1600 BR
Visibility Conditions
99 miles
  • Mist
Becoming Jan-23 @ 14:00 to Jan-23 @ 15:00
BECMG 2314/2315 13012KT 9999 NSW SCT010 WS020/12040KT QNH3018INS TX15/2221Z TNM03/2211Z
Wind Visibility Clouds Conditions Readings
130° at 12 knots
 Wind shear 2,000' AGL from 120° at 40 knots
Greater than 6 miles
  • Scattered at 1,000' AGL
Altimeter 30.18" Hg
Pressure 1021.92 hPa
TAF KLSF 220900Z 2209/2315 09006KT 9999 SKC WS020/12035KT QNH3040INS BECMG 2213/2214 10009KT 9999 SCT035 WS020/13040KT QNH3032INS BECMG 2217/2218 09012KT 9999 BKN030 520201 540303 QNH3028INS BECMG 2302/2303 10010G15KT 6000 -RA OVC015 540154 QNH3014INS BECMG 2308/2309 VRB06KT 4800 BR OVC010 WS020/12045KT QNH3015INS TEMPO 2309/2314 1600 BR BECMG 2314/2315 13012KT 9999 NSW SCT010 WS020/12040KT QNH3018INS TX15/2221Z TNM03/2211Z
Issued Jan-22 @ 09:00 UTC
(8 hours ago)
Valid From Jan-22 @ 09:00 UTC
(8 hours ago)
Valid To Jan-23 @ 15:00 UTC
(in 22 hours)
Jan-22 @ 09:00 - Jan-22 @ 13:00
Wind Visibility
90° at 6 knots Greater than 6 miles
Clouds
  • Clear skies
Becoming Jan-22 @ 13:00 - Jan-22 @ 17:00
Wind Visibility
100° at 9 knots Greater than 6 miles
Clouds
  • Scattered at 3,500' AGL
Becoming Jan-22 @ 17:00 - Jan-23 @ 02:00
Wind Visibility
90° at 12 knots Greater than 6 miles
Clouds
  • Broken at 3,000' AGL
Becoming Jan-23 @ 02:00 - Jan-23 @ 08:00
Wind Visibility
100° at 10 knots
 Gusting to 15 knots
373 miles
Clouds
  • Overcast at 1,500' AGL
Conditions
  • Light Rain
Becoming Jan-23 @ 08:00 - Jan-23 @ 14:00
Wind Visibility
Variable at 6 knots 298 miles
Clouds
  • Overcast at 1,000' AGL
Conditions
  • Mist
Temporary Jan-23 @ 09:00 - Jan-23 @ 14:00
Conditions
  • Mist
Becoming Jan-23 @ 14:00 - Jan-23 @ 15:00
Wind Visibility
130° at 12 knots Greater than 6 miles
Clouds
  • Scattered at 1,000' AGL
Conditions